createdAt,value
2023-04-03T00:00:25.371Z,59.80
2023-04-03T00:05:49.991Z,59.80
2023-04-03T00:10:54.348Z,59.60
2023-04-03T00:15:58.467Z,59.00
2023-04-03T00:21:03.349Z,58.10
2023-04-03T00:26:07.635Z,57.50
2023-04-03T00:31:12.041Z,57.20
2023-04-03T00:36:17.780Z,56.90
2023-04-03T00:41:22.822Z,56.40
2023-04-03T00:46:26.908Z,56.30
2023-04-03T00:51:31.338Z,56.00
2023-04-03T00:56:37.608Z,56.00
2023-04-03T01:01:41.834Z,56.00
2023-04-03T01:06:46.260Z,55.80
2023-04-03T01:11:50.497Z,55.80
2023-04-03T01:16:56.367Z,55.80
2023-04-03T01:22:14.931Z,55.20
2023-04-03T01:27:18.962Z,55.70
2023-04-03T01:32:23.316Z,55.00
2023-04-03T01:37:27.449Z,55.10
2023-04-03T01:42:31.571Z,55.00
2023-04-03T01:47:35.935Z,55.00
2023-04-03T01:52:39.894Z,55.00
2023-04-03T01:57:44.090Z,54.60
2023-04-03T02:02:48.343Z,54.00
2023-04-03T02:07:52.555Z,53.60
2023-04-03T02:12:57.106Z,53.90
2023-04-03T02:18:02.499Z,53.80
2023-04-03T02:23:13.013Z,54.20
2023-04-03T02:28:17.079Z,54.20
2023-04-03T02:33:21.703Z,54.10
2023-04-03T02:38:27.598Z,54.40
2023-04-03T02:43:31.934Z,54.50
2023-04-03T02:48:36.694Z,54.70
2023-04-03T02:53:41.053Z,54.90
2023-04-03T02:58:49.870Z,55.10
2023-04-03T03:03:54.636Z,55.80
2023-04-03T03:08:58.770Z,55.60
2023-04-03T03:14:03.610Z,55.90
2023-04-03T03:19:08.250Z,55.90
2023-04-03T03:24:13.501Z,56.70
2023-04-03T03:29:17.645Z,56.80
2023-04-03T03:34:22.401Z,56.50
2023-04-03T03:39:26.767Z,56.80
2023-04-03T03:44:31.283Z,57.30
2023-04-03T03:49:35.936Z,56.80
2023-04-03T03:54:40.376Z,57.10
2023-04-03T03:59:45.648Z,56.80
2023-04-03T04:04:50.585Z,57.10
2023-04-03T04:09:55.540Z,57.00
2023-04-03T04:14:59.800Z,56.90
2023-04-03T04:20:06.682Z,57.30
2023-04-03T04:25:11.530Z,56.90
2023-04-03T04:30:16.479Z,56.20
2023-04-03T04:35:21.701Z,54.90
2023-04-03T04:40:26.816Z,54.70
2023-04-03T04:45:31.678Z,54.60
2023-04-03T04:50:36.820Z,54.10
2023-04-03T04:55:41.458Z,53.70
2023-04-03T05:00:46.620Z,53.60
2023-04-03T05:05:52.082Z,53.50
2023-04-03T05:10:56.584Z,53.50
2023-04-03T05:16:01.817Z,53.30
2023-04-03T05:21:06.656Z,53.30
2023-04-03T05:26:11.053Z,53.20
2023-04-03T05:31:16.683Z,53.20
2023-04-03T05:36:21.456Z,53.20
2023-04-03T05:41:28.302Z,53.50
2023-04-03T05:46:33.244Z,53.00
2023-04-03T05:51:41.744Z,53.10
2023-04-03T05:56:52.799Z,52.90
2023-04-03T06:01:57.828Z,53.10
2023-04-03T06:07:02.280Z,53.60
2023-04-03T06:12:06.610Z,53.40
2023-04-03T06:17:11.891Z,53.40
2023-04-03T06:22:16.418Z,54.00
2023-04-03T06:27:20.452Z,54.40
2023-04-03T06:32:24.775Z,54.60
2023-04-03T06:37:32.207Z,54.40
2023-04-03T06:42:36.869Z,55.10
2023-04-03T06:47:47.891Z,55.70
2023-04-03T06:52:51.907Z,55.30
2023-04-03T06:57:56.719Z,55.00
2023-04-03T07:03:01.518Z,55.50
2023-04-03T07:08:06.128Z,51.10
2023-04-03T07:13:10.150Z,53.20
2023-04-03T07:18:14.346Z,53.00
2023-04-03T07:23:19.540Z,53.40
2023-04-03T07:28:24.859Z,53.60
2023-04-03T07:33:28.933Z,53.70
2023-04-03T07:38:33.301Z,54.00
2023-04-03T07:43:37.824Z,53.70
2023-04-03T07:48:41.970Z,53.60
2023-04-03T07:53:46.189Z,53.60
2023-04-03T07:58:50.218Z,53.30
2023-04-03T08:03:54.403Z,53.20
2023-04-03T08:08:58.712Z,52.80
2023-04-03T08:14:04.016Z,52.70
2023-04-03T08:19:15.065Z,52.80
2023-04-03T08:24:24.920Z,52.90
2023-04-03T08:29:29.722Z,53.40
2023-04-03T08:34:38.404Z,54.30
2023-04-03T08:39:42.559Z,54.90
2023-04-03T08:44:49.357Z,55.50
2023-04-03T08:50:02.872Z,55.90
2023-04-03T08:55:29.502Z,56.60
2023-04-03T09:00:42.170Z,56.30
2023-04-03T09:06:02.794Z,56.70
2023-04-03T09:11:23.433Z,56.30
2023-04-03T09:16:33.045Z,55.00
2023-04-03T09:21:43.547Z,54.60
2023-04-03T09:26:47.462Z,53.70
2023-04-03T09:31:59.228Z,53.80
2023-04-03T09:37:07.316Z,53.70
2023-04-03T09:42:26.382Z,53.90
2023-04-03T09:47:35.014Z,53.60
2023-04-03T09:52:40.535Z,53.70
2023-04-03T09:57:46.790Z,53.90
2023-04-03T10:03:00.365Z,54.20
2023-04-03T10:08:15.393Z,53.90
2023-04-03T10:13:23.248Z,54.20
2023-04-03T10:18:43.612Z,54.00
2023-04-03T10:24:23.188Z,53.80
2023-04-03T10:29:30.157Z,53.70
2023-04-03T10:34:40.114Z,53.50
2023-04-03T10:40:00.330Z,53.70
2023-04-03T10:45:30.557Z,54.00
2023-04-03T10:50:49.936Z,53.90
2023-04-03T10:56:23.550Z,53.90
2023-04-03T11:01:40.714Z,54.30
2023-04-03T11:07:01.896Z,54.80
2023-04-03T11:12:28.641Z,54.80
2023-04-03T11:17:45.846Z,55.50
2023-04-03T11:23:00.280Z,55.10
2023-04-03T11:28:13.913Z,55.70
2023-04-03T11:33:36.890Z,55.30
2023-04-03T11:38:46.486Z,55.60
2023-04-03T11:44:42.963Z,55.90
2023-04-03T11:50:02.416Z,55.80
2023-04-03T11:55:32.564Z,55.20
2023-04-03T12:00:48.566Z,55.40
2023-04-03T12:06:08.292Z,55.90
2023-04-03T12:11:12.906Z,55.70
2023-04-03T12:16:26.307Z,55.80
2023-04-03T12:21:49.538Z,55.80
2023-04-03T12:26:59.649Z,55.70
2023-04-03T12:32:41.025Z,55.80
2023-04-03T12:38:05.714Z,55.80
2023-04-03T12:43:43.401Z,55.80
2023-04-03T12:48:56.411Z,55.70
2023-04-03T12:54:14.854Z,55.70
2023-04-03T12:59:25.080Z,55.60
2023-04-03T13:04:31.270Z,55.50
2023-04-03T13:09:35.391Z,55.60
2023-04-03T13:14:40.031Z,55.60
2023-04-03T13:19:47.183Z,55.50
2023-04-03T13:24:53.412Z,55.50
2023-04-03T13:30:00.994Z,55.40
2023-04-03T13:35:33.451Z,55.50
2023-04-03T13:46:23.677Z,55.70
2023-04-03T13:51:31.312Z,55.00
2023-04-03T13:56:38.590Z,55.10
2023-04-03T14:01:56.814Z,55.30
2023-04-03T14:07:01.430Z,55.00
2023-04-03T14:12:24.212Z,55.40
2023-04-03T14:17:37.531Z,54.80
2023-04-03T14:22:42.009Z,54.50
2023-04-03T14:27:51.141Z,54.40
2023-04-03T14:32:56.030Z,53.30
2023-04-03T14:38:00.235Z,53.60
2023-04-03T14:43:05.307Z,54.00
2023-04-03T14:48:18.217Z,53.50
2023-04-03T14:53:37.779Z,53.50
2023-04-03T14:58:47.781Z,53.40
2023-04-03T15:03:55.460Z,53.90
2023-04-03T15:08:59.547Z,55.00
2023-04-03T15:14:03.620Z,55.30
2023-04-03T15:19:07.753Z,56.40
2023-04-03T15:24:11.920Z,56.80
2023-04-03T15:29:16.082Z,57.30
2023-04-03T15:34:20.523Z,57.00
2023-04-03T15:39:27.010Z,57.10
2023-04-03T15:44:31.363Z,56.20
2023-04-03T15:49:36.220Z,56.30
2023-04-03T15:54:40.455Z,55.90
2023-04-03T15:59:44.689Z,56.30
2023-04-03T16:04:49.029Z,56.00
2023-04-03T16:09:54.079Z,55.70
2023-04-03T16:14:58.109Z,55.70
2023-04-03T16:20:03.956Z,55.60
2023-04-03T16:25:11.012Z,54.10
2023-04-03T16:30:15.680Z,53.60
2023-04-03T16:35:21.866Z,52.90
2023-04-03T16:40:26.211Z,52.40
2023-04-03T16:45:33.675Z,52.00
2023-04-03T16:50:38.790Z,51.80
2023-04-03T16:55:45.436Z,51.50
2023-04-03T17:00:50.065Z,51.20
2023-04-03T17:05:54.573Z,52.00
2023-04-03T17:11:01.151Z,51.10
2023-04-03T17:16:11.719Z,50.50
2023-04-03T17:21:23.619Z,50.20
2023-04-03T17:26:34.141Z,50.10
2023-04-03T17:31:44.788Z,49.90
2023-04-03T17:36:56.640Z,49.60
2023-04-03T17:42:05.281Z,50.00
2023-04-03T17:47:11.996Z,49.50
2023-04-03T17:52:23.833Z,49.30
2023-04-03T17:57:32.600Z,49.50
2023-04-03T18:02:38.138Z,49.80
2023-04-03T18:07:43.921Z,50.10
2023-04-03T18:12:51.964Z,50.80
2023-04-03T18:17:58.960Z,51.20
2023-04-03T18:23:05.704Z,51.70
2023-04-03T18:28:11.632Z,51.00
2023-04-03T18:33:17.787Z,51.80
2023-04-03T18:38:23.986Z,51.70
2023-04-03T18:43:29.800Z,51.90
2023-04-03T18:48:41.625Z,52.20
2023-04-03T18:53:51.946Z,53.00
2023-04-03T18:58:58.249Z,53.10
2023-04-03T19:04:04.711Z,52.80
2023-04-03T19:09:11.258Z,53.10
2023-04-03T19:14:17.324Z,52.90
2023-04-03T19:19:23.590Z,52.60
2023-04-03T19:24:30.231Z,52.70
2023-04-03T19:29:37.678Z,52.40
2023-04-03T19:34:44.542Z,52.60
2023-04-03T19:39:49.926Z,52.80
2023-04-03T19:44:56.429Z,52.50
2023-04-03T19:50:02.357Z,52.50
2023-04-03T19:55:09.822Z,53.40
2023-04-03T20:00:24.461Z,52.80
2023-04-03T20:05:30.767Z,52.80
2023-04-03T20:10:41.712Z,52.90
2023-04-03T20:15:48.174Z,53.10
2023-04-03T20:21:04.700Z,53.10
2023-04-03T20:26:15.513Z,53.20
2023-04-03T20:31:23.063Z,53.10
2023-04-03T20:36:31.448Z,53.10
2023-04-03T20:41:38.759Z,52.70
2023-04-03T20:51:53.909Z,53.30
2023-04-03T20:56:58.338Z,55.90
2023-04-03T21:02:02.991Z,55.50
2023-04-03T21:07:44.987Z,54.70
2023-04-03T21:13:26.976Z,54.70
2023-04-03T21:18:31.109Z,54.80
2023-04-03T21:23:35.152Z,54.60
2023-04-03T21:28:39.386Z,54.70
2023-04-03T21:33:43.532Z,54.70
2023-04-03T21:38:48.902Z,55.00
2023-04-03T21:43:53.245Z,54.80
2023-04-03T21:48:57.273Z,54.20
2023-04-03T21:54:01.305Z,53.80
2023-04-03T21:59:05.624Z,53.80
2023-04-03T22:04:10.093Z,53.80
2023-04-03T22:09:14.823Z,54.20
2023-04-03T22:14:19.074Z,54.60
2023-04-03T22:19:24.300Z,54.90
2023-04-03T22:24:28.569Z,55.50
2023-04-03T22:29:32.802Z,55.30
2023-04-03T22:34:40.003Z,55.00
2023-04-03T22:39:44.140Z,55.00
2023-04-03T22:44:48.166Z,54.70
2023-04-03T22:49:52.207Z,54.40
2023-04-03T22:54:57.980Z,54.40
2023-04-03T23:00:03.858Z,54.40
2023-04-03T23:05:08.941Z,54.80
2023-04-03T23:10:13.346Z,54.80
2023-04-03T23:15:19.938Z,54.80
2023-04-03T23:20:23.876Z,54.80
2023-04-03T23:25:27.994Z,55.10
2023-04-03T23:30:32.767Z,55.00
2023-04-03T23:35:49.295Z,55.20
2023-04-03T23:40:53.304Z,54.80
2023-04-03T23:45:57.897Z,54.50
2023-04-03T23:51:02.221Z,54.80
2023-04-03T23:56:11.764Z,54.80
